Time;durP1;ratioP1;P1;durP2;ratioP2;P2;SDS_P1;SDS_P2;PMS_P1;PMS_P2;Temp;Humidity;BMP_temperature;BMP_pressure;BME280_temperature;BME280_humidity;BME280_pressure;Samples;Min_cycle;Max_cycle;Signal;HPM_P1;HPM_P2
2021/05/18 00:00:46;;;;;;;13.23;5.80;;;;;;;;;;8329020;28;20070;-71
2021/05/18 00:04:51;;;;;;;8.93;3.75;;;;;;;;;;8309873;28;20359;-71
2021/05/18 00:13:36;;;;;;;3.13;1.65;;;;;;;;;;8193561;28;20483;-71
2021/05/18 00:17:42;;;;;;;2.63;1.60;;;;;;;;;;8257858;28;20377;-72
2021/05/18 00:21:47;;;;;;;2.80;1.88;;;;;;;;;;8327938;28;20114;-71
2021/05/18 00:25:51;;;;;;;2.95;2.40;;;;;;;;;;8328538;28;20481;-71
2021/05/18 00:29:57;;;;;;;5.82;2.15;;;;;;;;;;8327277;28;20409;-71
2021/05/18 00:34:03;;;;;;;3.53;1.80;;;;;;;;;;8329353;28;20371;-73
2021/05/18 00:38:09;;;;;;;3.55;2.28;;;;;;;;;;8326242;28;20470;-71
2021/05/18 00:42:21;;;;;;;4.07;2.47;;;;;;;;;;8327250;28;20052;-71
2021/05/18 00:46:27;;;;;;;4.20;2.45;;;;;;;;;;8309742;28;20462;-71
2021/05/18 00:50:42;;;;;;;6.55;2.92;;;;;;;;;;8309979;28;20406;-72
2021/05/18 00:54:55;;;;;;;4.30;2.40;;;;;;;;;;8310866;28;20489;-72
2021/05/18 00:59:05;;;;;;;8.40;2.17;;;;;;;;;;8292966;28;20048;-72
2021/05/18 01:03:11;;;;;;;3.38;1.63;;;;;;;;;;8313470;28;20452;-71
2021/05/18 01:07:16;;;;;;;2.53;1.42;;;;;;;;;;8309957;28;20446;-71
2021/05/18 01:11:30;;;;;;;2.15;1.42;;;;;;;;;;8325917;28;20475;-71
2021/05/18 01:15:38;;;;;;;4.70;1.73;;;;;;;;;;8308574;28;20074;-71
2021/05/18 01:19:43;;;;;;;3.42;1.52;;;;;;;;;;8308670;28;20489;-74
2021/05/18 01:23:48;;;;;;;1.92;1.33;;;;;;;;;;8326465;28;20105;-71
2021/05/18 01:27:52;;;;;;;2.28;1.60;;;;;;;;;;8323777;28;20391;-72
2021/05/18 01:31:57;;;;;;;4.20;1.55;;;;;;;;;;8326453;28;20056;-72
2021/05/18 01:36:09;;;;;;;2.95;2.03;;;;;;;;;;8307387;28;20070;-72
2021/05/18 01:44:38;;;;;;;2.63;1.52;;;;;;;;;;8292617;28;20390;-72
2021/05/18 01:48:47;;;;;;;1.75;1.23;;;;;;;;;;8291066;28;20075;-72
2021/05/18 01:52:53;;;;;;;3.13;1.58;;;;;;;;;;8291308;28;20476;-71
2021/05/18 01:57:17;;;;;;;3.08;1.90;;;;;;;;;;8291089;28;20375;-72
2021/05/18 02:01:36;;;;;;;;;;;;;;;;;;8278526;28;20332;-72
2021/05/18 02:05:42;;;;;;;1.60;1.33;;;;;;;;;;8307150;28;20331;-72
2021/05/18 02:10:11;;;;;;;1.38;1.27;;;;;;;;;;8289710;28;20475;-72
2021/05/18 02:14:26;;;;;;;2.30;1.17;;;;;;;;;;8306452;28;20447;-72
2021/05/18 02:18:52;;;;;;;1.88;1.40;;;;;;;;;;8306672;28;20512;-73
2021/05/18 02:27:25;;;;;;;2.53;1.35;;;;;;;;;;8273184;28;20344;-71
2021/05/18 02:31:32;;;;;;;2.00;1.30;;;;;;;;;;8289222;28;20455;-71
2021/05/18 02:36:06;;;;;;;2.63;1.10;;;;;;;;;;8286322;28;20711;-72
2021/05/18 02:40:19;;;;;;;2.17;1.58;;;;;;;;;;8289628;28;20375;-72
2021/05/18 02:44:30;;;;;;;1.75;1.25;;;;;;;;;;8274399;28;20447;-71
2021/05/18 02:52:59;;;;;;;3.05;1.30;;;;;;;;;;8290110;28;20115;-72
2021/05/18 02:57:10;;;;;;;2.70;1.58;;;;;;;;;;8307548;28;20049;-71
2021/05/18 03:01:14;;;;;;;1.95;1.52;;;;;;;;;;8294077;28;20466;-72
2021/05/18 03:05:20;;;;;;;2.13;1.63;;;;;;;;;;8296996;28;20448;-72
2021/05/18 03:09:24;;;;;;;2.92;1.40;;;;;;;;;;8311875;28;20391;-71
2021/05/18 03:13:30;;;;;;;3.75;1.77;;;;;;;;;;8299386;28;20162;-71
2021/05/18 03:17:36;;;;;;;1.63;1.30;;;;;;;;;;8295655;28;20074;-71
2021/05/18 03:21:44;;;;;;;2.53;1.70;;;;;;;;;;8294955;28;20486;-71
2021/05/18 03:25:49;;;;;;;2.08;1.40;;;;;;;;;;8295103;28;20388;-72
2021/05/18 03:29:54;;;;;;;2.05;1.50;;;;;;;;;;8296047;28;20061;-72
2021/05/18 03:38:26;;;;;;;2.05;1.25;;;;;;;;;;8301936;28;20425;-72
2021/05/18 03:42:33;;;;;;;2.28;1.50;;;;;;;;;;8327651;28;20467;-71
2021/05/18 04:04:17;;;;;;;2.53;1.33;;;;;;;;;;8312601;28;20320;-71
2021/05/18 04:12:48;;;;;;;2.08;1.30;;;;;;;;;;8325972;28;20388;-72
2021/05/18 04:16:57;;;;;;;3.47;1.50;;;;;;;;;;8328302;28;20355;-71
2021/05/18 04:21:06;;;;;;;1.40;1.10;;;;;;;;;;8326817;28;20654;-72
2021/05/18 04:38:44;;;;;;;4.47;2.17;;;;;;;;;;8326300;28;20481;-71
2021/05/18 04:51:38;;;;;;;3.78;1.30;;;;;;;;;;8327471;28;20386;-72
2021/05/18 05:00:10;;;;;;;1.92;1.40;;;;;;;;;;8311030;28;20399;-72
2021/05/18 05:08:41;;;;;;;2.22;1.33;;;;;;;;;;8304876;28;20462;-73
2021/05/18 05:14:06;;;;;;;3.78;1.45;;;;;;;;;;8327319;28;20053;-72
2021/05/18 05:17:21;;;;;;;2.05;1.30;;;;;;;;;;8328178;28;20465;-72
2021/05/18 05:21:29;;;;;;;1.35;1.15;;;;;;;;;;8326073;28;20474;-73
2021/05/18 05:25:34;;;;;;;2.58;1.20;;;;;;;;;;8326337;28;20375;-72
2021/05/18 05:29:39;;;;;;;3.20;1.50;;;;;;;;;;8323908;28;20074;-73
2021/05/18 05:33:44;;;;;;;2.15;1.20;;;;;;;;;;8328133;28;20463;-73
2021/05/18 05:37:49;;;;;;;2.10;1.25;;;;;;;;;;8324974;28;20391;-73
2021/05/18 05:41:55;;;;;;;2.85;1.35;;;;;;;;;;8325531;28;20051;-72
2021/05/18 05:46:00;;;;;;;3.33;1.27;;;;;;;;;;8308081;28;20379;-72
2021/05/18 05:50:06;;;;;;;3.40;1.80;;;;;;;;;;8325041;28;20477;-72
2021/05/18 05:54:11;;;;;;;4.18;1.70;;;;;;;;;;8325966;28;20474;-73
2021/05/18 05:58:17;;;;;;;2.17;1.45;;;;;;;;;;8308783;28;20398;-72
2021/05/18 06:02:22;;;;;;;3.58;1.30;;;;;;;;;;8326020;28;20048;-73
2021/05/18 06:06:27;;;;;;;1.77;1.20;;;;;;;;;;8308432;28;20500;-73
2021/05/18 06:10:34;;;;;;;2.55;1.10;;;;;;;;;;8326898;28;20454;-71
2021/05/18 06:14:45;;;;;;;2.35;1.15;;;;;;;;;;8309014;28;20332;-72
2021/05/18 06:49:37;;;;;;;2.67;1.00;;;;;;;;;;8291697;28;20418;-72
2021/05/18 06:53:42;;;;;;;1.45;1.00;;;;;;;;;;8295005;28;20397;-72
2021/05/18 06:57:48;;;;;;;2.60;1.52;;;;;;;;;;8289998;28;20464;-73
2021/05/18 07:01:57;;;;;;;2.67;1.27;;;;;;;;;;8289057;28;20056;-72
2021/05/18 07:06:09;;;;;;;2.85;1.17;;;;;;;;;;8291177;28;20486;-72
2021/05/18 07:10:14;;;;;;;12.13;6.90;;;;;;;;;;8292533;28;20360;-72
2021/05/18 07:14:19;;;;;;;21.45;11.90;;;;;;;;;;8293351;28;20383;-72
2021/05/18 07:18:24;;;;;;;20.33;10.13;;;;;;;;;;8292452;28;20364;-72
2021/05/18 07:22:29;;;;;;;22.20;9.02;;;;;;;;;;8292939;28;20056;-72
2021/05/18 07:26:32;;;;;;;32.28;12.27;;;;;;;;;;8291407;28;20395;-72
2021/05/18 07:30:40;;;;;;;55.08;18.83;;;;;;;;;;8290937;28;20458;-72
2021/05/18 07:34:44;;;;;;;49.40;14.23;;;;;;;;;;8290771;28;20463;-72
2021/05/18 07:38:50;;;;;;;35.08;9.20;;;;;;;;;;8301594;28;20056;-72
2021/05/18 07:42:55;;;;;;;8.23;1.88;;;;;;;;;;8323211;28;20390;-71
2021/05/18 07:47:01;;;;;;;13.25;4.68;;;;;;;;;;8308804;28;20439;-72
2021/05/18 07:51:15;;;;;;;11.90;4.07;;;;;;;;;;8313652;28;20052;-71
2021/05/18 07:59:49;;;;;;;44.45;13.90;;;;;;;;;;8299333;28;20374;-72
2021/05/18 08:08:16;;;;;;;10.52;4.50;;;;;;;;;;8327797;28;20078;-71
2021/05/18 08:12:21;;;;;;;18.45;8.35;;;;;;;;;;8326828;28;20394;-72
2021/05/18 08:21:01;;;;;;;8.52;4.55;;;;;;;;;;8305626;28;20393;-73
2021/05/18 10:22:06;;;;;;;2.92;2.60;;;;;;;;;;8290864;28;20414;-71
2021/05/18 10:35:01;;;;;;;4.32;3.08;;;;;;;;;;8290725;28;20390;-70
2021/05/18 10:39:22;;;;;;;3.83;2.95;;;;;;;;;;8301974;28;20382;-70
2021/05/18 10:43:30;;;;;;;4.63;3.17;;;;;;;;;;8308951;28;20051;-71
2021/05/18 10:47:45;;;;;;;3.63;2.97;;;;;;;;;;8306843;28;20071;-71
2021/05/18 10:51:53;;;;;;;3.50;2.70;;;;;;;;;;8322900;28;20792;-70
2021/05/18 10:56:11;;;;;;;;;;;;;;;;;;8324340;28;20363;-70
2021/05/18 11:00:16;;;;;;;;;;;;;;;;;;8322980;28;20240;-70
2021/05/18 11:04:22;;;;;;;7.68;3.05;;;;;;;;;;8322119;28;20335;-70
2021/05/18 11:08:28;;;;;;;4.25;2.90;;;;;;;;;;8323689;28;20481;-71
2021/05/18 11:12:35;;;;;;;5.43;2.72;;;;;;;;;;8321736;28;20367;-70
2021/05/18 11:16:39;;;;;;;3.47;2.35;;;;;;;;;;8323337;28;20425;-70
2021/05/18 11:20:57;;;;;;;4.57;2.95;;;;;;;;;;8322244;28;20367;-71
2021/05/18 11:25:02;;;;;;;4.73;3.17;;;;;;;;;;8331373;28;20386;-71
2021/05/18 11:29:07;;;;;;;4.22;2.88;;;;;;;;;;8328333;28;20406;-70
2021/05/18 11:33:12;;;;;;;6.10;2.95;;;;;;;;;;8330579;28;20459;-72
2021/05/18 11:37:17;;;;;;;3.70;2.85;;;;;;;;;;8330245;28;20497;-69
2021/05/18 11:41:30;;;;;;;3.20;2.38;;;;;;;;;;8310344;28;20083;-69
2021/05/18 11:45:35;;;;;;;3.00;1.92;;;;;;;;;;8328850;28;20427;-71
2021/05/18 11:49:47;;;;;;;2.65;2.17;;;;;;;;;;8329116;28;20447;-70
2021/05/18 11:53:54;;;;;;;3.20;2.10;;;;;;;;;;8313504;28;20118;-70
2021/05/18 11:58:00;;;;;;;3.73;1.90;;;;;;;;;;8311973;28;20374;-72
2021/05/18 12:02:06;;;;;;;6.22;2.22;;;;;;;;;;8328516;28;20466;-70
2021/05/18 12:06:15;;;;;;;3.95;1.85;;;;;;;;;;8332282;28;20401;-70
2021/05/18 12:10:35;;;;;;;3.00;1.63;;;;;;;;;;8311524;28;20379;-70
2021/05/18 12:14:54;;;;;;;2.03;1.30;;;;;;;;;;8312101;28;20479;-70
2021/05/18 12:19:00;;;;;;;2.15;1.40;;;;;;;;;;8331327;28;20074;-70
2021/05/18 12:23:11;;;;;;;2.85;1.52;;;;;;;;;;8329004;28;20398;-70
2021/05/18 12:27:16;;;;;;;2.65;1.23;;;;;;;;;;8332711;28;20358;-70
2021/05/18 12:31:34;;;;;;;2.17;1.15;;;;;;;;;;8331878;28;20386;-70
2021/05/18 12:35:39;;;;;;;2.05;1.27;;;;;;;;;;8328922;28;20409;-70
2021/05/18 12:39:46;;;;;;;1.63;1.33;;;;;;;;;;8326833;28;20362;-69
2021/05/18 12:43:56;;;;;;;7.05;1.63;;;;;;;;;;8329260;28;20378;-70
2021/05/18 12:48:01;;;;;;;4.45;1.50;;;;;;;;;;8329442;28;20474;-69
2021/05/18 12:52:17;;;;;;;3.33;1.80;;;;;;;;;;8328366;28;20336;-70
2021/05/18 12:56:30;;;;;;;6.10;1.33;;;;;;;;;;8328398;28;20366;-69
2021/05/18 13:00:39;;;;;;;5.40;1.92;;;;;;;;;;8325643;28;20489;-70
2021/05/18 13:04:43;;;;;;;3.40;1.20;;;;;;;;;;8325812;28;20481;-70
2021/05/18 13:08:50;;;;;;;1.33;0.85;;;;;;;;;;8308037;28;20463;-69
2021/05/18 13:13:02;;;;;;;2.45;0.90;;;;;;;;;;8308997;28;20500;-70
2021/05/18 13:17:10;;;;;;;2.55;0.95;;;;;;;;;;8326983;28;20066;-70
2021/05/18 13:21:31;;;;;;;1.60;0.88;;;;;;;;;;8326685;28;20367;-69
2021/05/18 13:29:59;;;;;;;5.97;1.10;;;;;;;;;;8327965;28;20447;-69
2021/05/18 13:34:05;;;;;;;1.70;0.90;;;;;;;;;;8310564;28;20374;-69
2021/05/18 13:38:21;;;;;;;2.80;1.80;;;;;;;;;;8313968;28;20475;-69
2021/05/18 13:42:25;;;;;;;3.22;1.13;;;;;;;;;;8326069;28;20346;-69
2021/05/18 13:46:31;;;;;;;1.20;0.77;;;;;;;;;;8324603;28;20393;-67
2021/05/18 13:50:46;;;;;;;3.47;0.80;;;;;;;;;;8325864;28;20382;-68
2021/05/18 13:54:53;;;;;;;2.45;1.00;;;;;;;;;;8325047;28;20589;-69
2021/05/18 13:58:59;;;;;;;7.20;1.63;;;;;;;;;;8324222;28;20474;-69
2021/05/18 14:03:04;;;;;;;1.30;0.80;;;;;;;;;;8323944;28;20482;-68
2021/05/18 14:08:14;;;;;;;4.47;0.95;;;;;;;;;;8323461;28;20479;-68
2021/05/18 14:12:22;;;;;;;1.50;0.60;;;;;;;;;;8325049;28;20402;-68
2021/05/18 14:16:27;;;;;;;2.03;1.10;;;;;;;;;;8328042;28;20470;-68
2021/05/18 14:20:33;;;;;;;1.98;1.20;;;;;;;;;;8324969;28;20378;-68
2021/05/18 14:24:41;;;;;;;2.72;1.17;;;;;;;;;;8324892;28;20490;-67
2021/05/18 14:28:47;;;;;;;4.68;1.00;;;;;;;;;;8307684;28;20492;-67
2021/05/18 14:32:52;;;;;;;3.28;1.00;;;;;;;;;;8323637;28;20344;-68
2021/05/18 14:36:57;;;;;;;9.15;1.25;;;;;;;;;;8323063;28;20517;-68
2021/05/18 14:45:19;;;;;;;2.50;0.98;;;;;;;;;;8323968;28;20379;-68
2021/05/18 14:54:02;;;;;;;4.78;1.02;;;;;;;;;;8323071;28;20371;-68
2021/05/18 14:58:07;;;;;;;2.80;1.10;;;;;;;;;;8323928;28;20359;-68
2021/05/18 15:02:12;;;;;;;1.85;0.90;;;;;;;;;;8322470;28;20397;-68
2021/05/18 15:06:16;;;;;;;1.90;0.80;;;;;;;;;;8306107;28;20052;-68
2021/05/18 15:10:22;;;;;;;1.92;1.02;;;;;;;;;;8322789;28;20344;-68
2021/05/18 15:14:27;;;;;;;3.90;1.30;;;;;;;;;;8322887;28;20386;-69
2021/05/18 15:18:33;;;;;;;1.92;1.10;;;;;;;;;;8323044;28;20390;-68
2021/05/18 15:22:39;;;;;;;1.92;1.08;;;;;;;;;;8322309;28;20497;-68
2021/05/18 15:26:46;;;;;;;1.73;1.08;;;;;;;;;;8325083;28;20399;-69
2021/05/18 15:30:49;;;;;;;2.80;1.20;;;;;;;;;;8323452;28;20116;-67
2021/05/18 15:34:54;;;;;;;10.25;0.57;;;;;;;;;;8322777;28;20497;-69
2021/05/18 15:38:59;;;;;;;0.90;0.60;;;;;;;;;;8323304;28;20056;-68
2021/05/18 15:43:04;;;;;;;4.07;1.50;;;;;;;;;;8305487;28;20493;-68
2021/05/18 15:47:09;;;;;;;2.58;1.20;;;;;;;;;;8324371;28;20110;-68
2021/05/18 15:51:14;;;;;;;4.78;1.08;;;;;;;;;;8322442;28;20451;-68
2021/05/18 15:55:19;;;;;;;6.40;2.95;;;;;;;;;;8322394;28;20502;-67
2021/05/18 15:59:24;;;;;;;2.13;1.35;;;;;;;;;;8322455;28;20443;-69
2021/05/18 16:03:29;;;;;;;8.98;2.13;;;;;;;;;;8321394;28;20401;-70
2021/05/18 16:07:36;;;;;;;4.22;1.90;;;;;;;;;;8323165;28;20059;-69
2021/05/18 16:11:43;;;;;;;3.10;1.20;;;;;;;;;;8310645;28;20363;-69
2021/05/18 16:15:48;;;;;;;3.50;1.75;;;;;;;;;;8329274;28;20382;-68
2021/05/18 16:19:53;;;;;;;3.33;2.20;;;;;;;;;;8309762;28;20056;-69
2021/05/18 16:23:59;;;;;;;4.70;2.67;;;;;;;;;;8327507;28;20504;-70
2021/05/18 16:28:04;;;;;;;4.60;2.60;;;;;;;;;;8327698;28;20111;-69
2021/05/18 16:32:11;;;;;;;5.63;2.50;;;;;;;;;;8326356;28;20459;-68
2021/05/18 16:36:16;;;;;;;11.43;4.97;;;;;;;;;;8327775;28;20082;-70
2021/05/18 16:40:21;;;;;;;12.50;4.22;;;;;;;;;;8327814;28;20509;-70
2021/05/18 16:44:25;;;;;;;11.02;4.75;;;;;;;;;;8328366;28;20439;-69
2021/05/18 16:48:32;;;;;;;10.45;4.70;;;;;;;;;;8325816;28;20378;-69
2021/05/18 16:52:39;;;;;;;7.10;3.90;;;;;;;;;;8324515;28;20367;-69
2021/05/18 16:56:44;;;;;;;17.95;4.68;;;;;;;;;;8326055;28;20385;-68
2021/05/18 17:00:49;;;;;;;11.38;3.88;;;;;;;;;;8328719;28;20405;-69
2021/05/18 17:04:54;;;;;;;7.65;3.65;;;;;;;;;;8325635;28;20060;-69
2021/05/18 17:08:59;;;;;;;5.13;2.85;;;;;;;;;;8325514;28;20493;-68
2021/05/18 17:13:05;;;;;;;7.20;3.22;;;;;;;;;;8326773;28;20457;-69
2021/05/18 17:17:10;;;;;;;9.48;3.40;;;;;;;;;;8326588;28;20443;-68
2021/05/18 17:21:14;;;;;;;8.23;3.20;;;;;;;;;;8324932;28;20074;-68
2021/05/18 17:25:20;;;;;;;4.93;2.90;;;;;;;;;;8309213;28;20382;-70
2021/05/18 17:29:25;;;;;;;24.50;13.40;;;;;;;;;;8307940;28;20648;-68
2021/05/18 17:33:31;;;;;;;9.98;4.70;;;;;;;;;;8308050;28;20078;-69
2021/05/18 17:37:36;;;;;;;10.63;5.97;;;;;;;;;;8327419;28;20078;-69
2021/05/18 17:41:41;;;;;;;6.50;3.15;;;;;;;;;;8324172;28;20459;-69
2021/05/18 17:45:48;;;;;;;9.15;3.97;;;;;;;;;;8323940;28;20074;-68
2021/05/18 17:49:53;;;;;;;7.90;3.55;;;;;;;;;;8323570;28;20517;-68
2021/05/18 17:53:58;;;;;;;10.63;3.88;;;;;;;;;;8324809;28;20393;-69
2021/05/18 17:58:03;;;;;;;10.43;5.38;;;;;;;;;;8325062;28;20074;-71
2021/05/18 18:02:09;;;;;;;10.82;5.32;;;;;;;;;;8306719;28;20048;-69
2021/05/18 18:06:14;;;;;;;17.00;7.30;;;;;;;;;;8325438;28;20459;-71
2021/05/18 18:10:19;;;;;;;19.10;9.32;;;;;;;;;;8306413;28;20443;-69
2021/05/18 18:14:24;;;;;;;27.45;13.80;;;;;;;;;;8324199;28;20543;-68
2021/05/18 18:18:29;;;;;;;30.42;14.00;;;;;;;;;;8326236;28;20375;-67
2021/05/18 18:22:33;;;;;;;26.83;10.63;;;;;;;;;;8289710;28;20344;-69
2021/05/18 18:26:38;;;;;;;15.55;7.97;;;;;;;;;;8323845;28;20110;-68
2021/05/18 18:30:43;;;;;;;11.18;6.03;;;;;;;;;;8324751;28;20379;-69
2021/05/18 18:34:48;;;;;;;5.68;3.15;;;;;;;;;;8322850;28;20374;-69
2021/05/18 18:38:53;;;;;;;7.68;3.28;;;;;;;;;;8306300;28;20379;-69
2021/05/18 18:42:58;;;;;;;26.15;8.90;;;;;;;;;;8323360;28;20417;-68
2021/05/18 18:47:05;;;;;;;41.88;11.82;;;;;;;;;;8323635;28;20396;-68
2021/05/18 18:51:12;;;;;;;68.28;22.20;;;;;;;;;;8322438;28;20493;-68
2021/05/18 18:55:18;;;;;;;50.22;15.25;;;;;;;;;;8287985;28;20056;-68
2021/05/18 18:59:25;;;;;;;113.43;54.60;;;;;;;;;;8323156;28;20176;-68
2021/05/18 19:03:31;;;;;;;74.82;36.28;;;;;;;;;;8322896;28;20393;-69
2021/05/18 19:07:41;;;;;;;34.97;19.98;;;;;;;;;;8324358;28;20481;-68
2021/05/18 19:16:06;;;;;;;31.60;12.68;;;;;;;;;;8308893;28;20082;-68
2021/05/18 19:20:12;;;;;;;26.83;12.32;;;;;;;;;;8323312;28;20465;-68
2021/05/18 19:24:19;;;;;;;33.20;16.42;;;;;;;;;;8322417;28;20379;-68
2021/05/18 19:28:29;;;;;;;26.48;13.18;;;;;;;;;;8324217;28;20359;-68
2021/05/18 19:32:34;;;;;;;23.67;12.38;;;;;;;;;;8324345;28;20454;-67
2021/05/18 19:36:55;;;;;;;20.63;9.00;;;;;;;;;;8321390;28;20509;-69
2021/05/18 19:41:25;;;;;;;19.92;7.90;;;;;;;;;;8323547;28;20470;-68
2021/05/18 19:45:51;;;;;;;20.17;8.25;;;;;;;;;;8315604;28;20492;-69
2021/05/18 19:50:09;;;;;;;14.67;7.17;;;;;;;;;;8329615;28;20382;-68
2021/05/18 19:54:22;;;;;;;14.25;7.70;;;;;;;;;;8310359;28;20426;-68
2021/05/18 20:20:24;;;;;;;10.77;5.32;;;;;;;;;;8328217;28;20149;-70
2021/05/18 20:24:29;;;;;;;13.35;6.55;;;;;;;;;;8327681;28;20481;-68
2021/05/18 20:28:34;;;;;;;12.90;6.47;;;;;;;;;;8328461;28;20467;-68
2021/05/18 20:32:39;;;;;;;15.00;6.57;;;;;;;;;;8326952;28;20044;-68
2021/05/18 20:41:22;;;;;;;16.88;8.20;;;;;;;;;;8250544;28;20078;-68
2021/05/18 20:45:27;;;;;;;16.42;8.23;;;;;;;;;;8328237;28;20066;-68
2021/05/18 20:49:32;;;;;;;18.63;8.95;;;;;;;;;;8329802;28;20359;-69
2021/05/18 20:53:37;;;;;;;20.98;9.18;;;;;;;;;;8326953;28;20386;-68
2021/05/18 20:57:44;;;;;;;20.98;8.65;;;;;;;;;;8329044;28;20479;-69
2021/05/18 21:01:49;;;;;;;18.38;9.80;;;;;;;;;;8309932;28;20413;-68
2021/05/18 21:05:58;;;;;;;23.42;10.50;;;;;;;;;;8327112;28;20471;-69
2021/05/18 21:10:11;;;;;;;;;;;;;;;;;;8326176;28;20401;-69
2021/05/18 21:18:43;;;;;;;23.20;12.07;;;;;;;;;;8328572;28;20366;-69
2021/05/18 21:22:49;;;;;;;26.67;11.13;;;;;;;;;;8326620;28;20470;-69
2021/05/18 21:26:54;;;;;;;20.42;10.23;;;;;;;;;;8326840;28;20394;-69
2021/05/18 21:30:58;;;;;;;24.65;11.00;;;;;;;;;;8326032;28;20070;-69
2021/05/18 21:35:05;;;;;;;20.98;10.63;;;;;;;;;;8328732;28;20048;-69
2021/05/18 21:39:14;;;;;;;19.20;10.38;;;;;;;;;;8326075;28;20115;-68
2021/05/18 21:43:19;;;;;;;18.80;9.73;;;;;;;;;;8327047;28;20052;-68
2021/05/18 21:47:24;;;;;;;19.70;10.07;;;;;;;;;;8307930;28;20109;-68
2021/05/18 21:51:29;;;;;;;15.52;8.60;;;;;;;;;;8324482;28;20055;-70
2021/05/18 21:55:34;;;;;;;13.02;7.53;;;;;;;;;;8324634;28;20340;-68
2021/05/18 21:59:39;;;;;;;17.83;8.23;;;;;;;;;;8326765;28;20473;-68
2021/05/18 22:03:44;;;;;;;13.40;7.20;;;;;;;;;;8306993;28;20059;-69
2021/05/18 22:07:51;;;;;;;14.38;8.30;;;;;;;;;;8306207;28;20276;-69
2021/05/18 22:12:04;;;;;;;11.73;6.82;;;;;;;;;;8323294;28;20497;-67
2021/05/18 22:16:43;;;;;;;13.15;7.00;;;;;;;;;;8307802;28;20371;-68
2021/05/18 22:29:33;;;;;;;12.40;6.75;;;;;;;;;;8323937;28;20497;-68
2021/05/18 22:33:43;;;;;;;13.68;6.47;;;;;;;;;;8321981;28;20450;-67
2021/05/18 22:37:48;;;;;;;11.98;6.50;;;;;;;;;;8307802;28;20055;-68
2021/05/18 22:41:58;;;;;;;10.82;6.65;;;;;;;;;;8288397;28;20360;-68
2021/05/18 22:46:05;;;;;;;15.30;6.00;;;;;;;;;;8305981;28;20071;-68
2021/05/18 22:50:10;;;;;;;10.60;5.97;;;;;;;;;;8306226;28;20478;-69
2021/05/18 22:54:17;;;;;;;15.48;5.63;;;;;;;;;;8289341;28;20386;-68
2021/05/18 22:58:24;;;;;;;12.20;6.47;;;;;;;;;;8293136;28;20356;-68
2021/05/18 23:02:28;;;;;;;19.17;6.93;;;;;;;;;;8291302;28;20443;-68
2021/05/18 23:06:34;;;;;;;12.82;5.80;;;;;;;;;;8305895;28;20428;-68
2021/05/18 23:10:39;;;;;;;11.95;6.35;;;;;;;;;;8289150;28;20480;-69
2021/05/18 23:14:45;;;;;;;13.98;6.88;;;;;;;;;;8288322;28;20360;-68
2021/05/18 23:18:50;;;;;;;18.15;7.25;;;;;;;;;;8293161;28;20460;-68
2021/05/18 23:22:55;;;;;;;41.05;7.50;;;;;;;;;;8311414;28;20173;-68
2021/05/18 23:27:00;;;;;;;15.63;7.97;;;;;;;;;;8311263;28;20414;-68
2021/05/18 23:31:11;;;;;;;14.40;8.47;;;;;;;;;;8295864;28;20355;-69
2021/05/18 23:35:17;;;;;;;15.15;7.85;;;;;;;;;;8294725;28;20383;-68
2021/05/18 23:39:23;;;;;;;13.63;7.75;;;;;;;;;;8308129;28;20496;-68
2021/05/18 23:43:28;;;;;;;14.18;7.50;;;;;;;;;;8328870;28;20374;-69
2021/05/18 23:47:33;;;;;;;13.07;6.63;;;;;;;;;;8329789;28;20510;-69
2021/05/18 23:51:44;;;;;;;12.73;7.70;;;;;;;;;;8309572;28;20459;-68
2021/05/18 23:55:50;;;;;;;11.27;6.22;;;;;;;;;;8311300;28;20052;-68
2021/05/18 23:59:55;;;;;;;14.63;7.53;;;;;;;;;;8328949;28;20398;-67
